Time,TemperatureF,DewpointF,PressureIn,WindDirection,WindDirectionDegrees,WindSpeedMPH,WindSpeedGustMPH,Humidity,HourlyPrecipIn,Conditions,Clouds,dailyrainin,SoftwareType,DateUTC
2013-02-02 00:00:00,17.0,8.6,30.44,WSW,247,0.0,11.0,69,0.00,,,-99.99,Weather View 32 v60,2013-02-02 05:00:00,
2013-02-02 00:05:00,17.0,8.6,30.44,SW,225,0.0,11.0,69,0.00,,,-99.99,Weather View 32 v60,2013-02-02 05:05:00,
2013-02-02 00:10:00,17.0,8.3,30.44,SW,225,2.0,11.0,68,0.00,,,-99.99,Weather View 32 v60,2013-02-02 05:10:00,
2013-02-02 00:15:00,17.0,8.3,30.44,SW,225,0.0,11.0,68,0.00,,,-99.99,Weather View 32 v60,2013-02-02 05:15:00,
2013-02-02 00:20:00,17.0,8.9,30.44,WSW,247,0.0,11.0,70,0.00,,,-99.99,Weather View 32 v60,2013-02-02 05:20:00,
2013-02-02 00:25:00,17.0,9.5,30.44,SW,225,0.0,7.0,72,0.00,,,-99.99,Weather View 32 v60,2013-02-02 05:25:00,
2013-02-02 00:30:00,17.0,8.6,30.44,SW,225,3.0,11.0,69,0.00,,,-99.99,Weather View 32 v60,2013-02-02 05:30:00,
2013-02-02 00:35:00,17.0,8.3,30.44,West,270,5.0,11.0,68,0.00,,,-99.99,Weather View 32 v60,2013-02-02 05:35:00,
2013-02-02 00:40:00,17.0,8.6,30.45,WSW,247,0.0,11.0,69,0.00,,,-99.99,Weather View 32 v60,2013-02-02 05:40:00,
2013-02-02 00:45:00,17.0,8.3,30.45,WSW,247,3.0,11.0,68,0.00,,,-99.99,Weather View 32 v60,2013-02-02 05:45:00,
2013-02-02 00:50:00,17.0,8.9,30.45,WSW,247,2.0,11.0,70,0.00,,,-99.99,Weather View 32 v60,2013-02-02 05:50:00,
2013-02-02 00:55:00,16.0,7.6,30.45,West,270,1.0,11.0,69,0.00,,,-99.99,Weather View 32 v60,2013-02-02 05:55:00,
2013-02-02 01:00:00,17.0,8.9,30.45,SW,225,0.0,11.0,70,0.00,,,-99.99,Weather View 32 v60,2013-02-02 06:00:00,
2013-02-02 01:05:00,17.0,8.9,30.45,WSW,247,0.0,11.0,70,0.00,,,-99.99,Weather View 32 v60,2013-02-02 06:05:00,
2013-02-02 01:10:00,16.0,7.3,30.45,SW,225,0.0,11.0,68,0.00,,,-99.99,Weather View 32 v60,2013-02-02 06:10:00,
2013-02-02 01:15:00,16.0,8.3,30.45,West,270,1.0,11.0,71,0.00,,,-99.99,Weather View 32 v60,2013-02-02 06:15:00,
2013-02-02 01:20:00,16.0,8.6,30.45,West,270,4.0,11.0,72,0.00,,,-99.99,Weather View 32 v60,2013-02-02 06:20:00,
2013-02-02 01:25:00,16.0,8.6,30.45,SW,225,0.0,11.0,72,0.00,,,-99.99,Weather View 32 v60,2013-02-02 06:25:00,
2013-02-02 01:30:00,16.0,8.9,30.47,SW,225,0.0,10.0,73,0.00,,,-99.99,Weather View 32 v60,2013-02-02 06:30:00,
2013-02-02 01:35:00,16.0,9.2,30.47,SW,225,2.0,8.0,74,0.00,,,-99.99,Weather View 32 v60,2013-02-02 06:35:00,
2013-02-02 01:40:00,16.0,8.9,30.47,WNW,292,0.0,8.0,73,0.00,,,-99.99,Weather View 32 v60,2013-02-02 06:40:00,
2013-02-02 01:45:00,16.0,8.6,30.47,WSW,247,1.0,8.0,72,0.00,,,-99.99,Weather View 32 v60,2013-02-02 06:45:00,
2013-02-02 01:50:00,16.0,8.9,30.47,SW,225,0.0,8.0,73,0.00,,,-99.99,Weather View 32 v60,2013-02-02 06:50:00,
2013-02-02 01:55:00,16.0,9.5,30.47,WSW,247,0.0,8.0,75,0.00,,,-99.99,Weather View 32 v60,2013-02-02 06:55:00,
2013-02-02 02:00:00,16.0,9.8,30.47,WSW,247,0.0,8.0,76,0.00,,,-99.99,Weather View 32 v60,2013-02-02 07:00:00,
2013-02-02 02:10:00,16.0,9.5,30.47,SW,225,0.0,8.0,75,0.00,,,-99.99,Weather View 32 v60,2013-02-02 07:10:00,
2013-02-02 02:15:00,15.0,8.5,30.47,West,270,0.0,8.0,75,0.00,,,-99.99,Weather View 32 v60,2013-02-02 07:15:00,
2013-02-02 02:20:00,15.0,8.5,30.47,WSW,247,1.0,8.0,75,0.00,,,-99.99,Weather View 32 v60,2013-02-02 07:20:00,
2013-02-02 02:25:00,15.0,9.4,30.47,West,270,0.0,7.0,78,0.00,,,-99.99,Weather View 32 v60,2013-02-02 07:25:00,
2013-02-02 02:30:00,15.0,8.8,30.47,SW,225,2.0,7.0,76,0.00,,,-99.99,Weather View 32 v60,2013-02-02 07:30:00,
2013-02-02 02:35:00,15.0,9.4,30.47,SW,225,0.0,8.0,78,0.00,,,-99.99,Weather View 32 v60,2013-02-02 07:35:00,
2013-02-02 02:40:00,15.0,9.4,30.46,West,270,0.0,8.0,78,0.00,,,-99.99,Weather View 32 v60,2013-02-02 07:40:00,
2013-02-02 02:45:00,15.0,10.0,30.46,SW,225,0.0,8.0,80,0.00,,,-99.99,Weather View 32 v60,2013-02-02 07:45:00,
2013-02-02 02:50:00,15.0,10.0,30.47,WSW,247,0.0,8.0,80,0.00,,,-99.99,Weather View 32 v60,2013-02-02 07:50:00,
2013-02-02 02:55:00,15.0,9.1,30.47,West,270,3.0,8.0,77,0.00,,,-99.99,Weather View 32 v60,2013-02-02 07:55:00,
2013-02-02 03:00:00,15.0,9.1,30.46,SW,225,1.0,8.0,77,0.00,,,-99.99,Weather View 32 v60,2013-02-02 08:00:00,
2013-02-02 03:05:00,15.0,9.4,30.46,SW,225,2.0,8.0,78,0.00,,,-99.99,Weather View 32 v60,2013-02-02 08:05:00,
2013-02-02 03:10:00,15.0,9.4,30.46,SW,225,1.0,8.0,78,0.00,,,-99.99,Weather View 32 v60,2013-02-02 08:10:00,
2013-02-02 03:15:00,15.0,9.1,30.46,SW,225,4.0,8.0,77,0.00,,,-99.99,Weather View 32 v60,2013-02-02 08:15:00,
2013-02-02 03:20:00,15.0,9.4,30.46,West,270,1.0,8.0,78,0.00,,,-99.99,Weather View 32 v60,2013-02-02 08:20:00,
2013-02-02 03:25:00,15.0,9.4,30.46,SW,225,1.0,8.0,78,0.00,,,-99.99,Weather View 32 v60,2013-02-02 08:25:00,
2013-02-02 03:30:00,15.0,9.7,30.46,WSW,247,0.0,8.0,79,0.00,,,-99.99,Weather View 32 v60,2013-02-02 08:30:00,
2013-02-02 03:35:00,15.0,9.1,30.46,SW,225,0.0,6.0,77,0.00,,,-99.99,Weather View 32 v60,2013-02-02 08:35:00,
2013-02-02 03:40:00,15.0,9.1,30.46,SW,225,0.0,6.0,77,0.00,,,-99.99,Weather View 32 v60,2013-02-02 08:40:00,
2013-02-02 03:45:00,14.0,8.4,30.46,SW,225,0.0,7.0,78,0.00,,,-99.99,Weather View 32 v60,2013-02-02 08:45:00,
2013-02-02 03:50:00,15.0,10.0,30.45,SW,225,1.0,7.0,80,0.00,,,-99.99,Weather View 32 v60,2013-02-02 08:50:00,
2013-02-02 03:55:00,15.0,9.4,30.45,WSW,247,1.0,7.0,78,0.00,,,-99.99,Weather View 32 v60,2013-02-02 08:55:00,
2013-02-02 04:00:00,15.0,8.5,30.45,WSW,247,2.0,7.0,75,0.00,,,-99.99,Weather View 32 v60,2013-02-02 09:00:00,
2013-02-02 04:05:00,14.0,9.5,30.45,SW,225,0.0,7.0,82,0.00,,,-99.99,Weather View 32 v60,2013-02-02 09:05:00,
2013-02-02 04:10:00,15.0,9.1,30.45,SW,225,1.0,7.0,77,0.00,,,-99.99,Weather View 32 v60,2013-02-02 09:10:00,
2013-02-02 04:15:00,14.0,8.7,30.45,SW,225,2.0,7.0,79,0.00,,,-99.99,Weather View 32 v60,2013-02-02 09:15:00,
2013-02-02 04:20:00,15.0,9.7,30.45,WSW,247,0.0,7.0,79,0.00,,,-99.99,Weather View 32 v60,2013-02-02 09:20:00,
2013-02-02 04:25:00,14.0,8.1,30.45,WNW,292,1.0,7.0,77,0.00,,,-99.99,Weather View 32 v60,2013-02-02 09:25:00,
2013-02-02 04:35:00,14.0,8.7,30.45,West,270,0.0,7.0,79,0.00,,,-99.99,Weather View 32 v60,2013-02-02 09:35:00,
2013-02-02 04:40:00,14.0,7.8,30.45,SW,225,0.0,7.0,76,0.00,,,-99.99,Weather View 32 v60,2013-02-02 09:40:00,
2013-02-02 04:50:00,14.0,7.8,30.45,WSW,247,3.0,7.0,76,0.00,,,-99.99,Weather View 32 v60,2013-02-02 09:50:00,
2013-02-02 04:55:00,14.0,7.8,30.45,WSW,247,3.0,8.0,76,0.00,,,-99.99,Weather View 32 v60,2013-02-02 09:55:00,
2013-02-02 05:00:00,14.0,7.8,30.45,SW,225,0.0,8.0,76,0.00,,,-99.99,Weather View 32 v60,2013-02-02 10:00:00,
2013-02-02 05:05:00,14.0,8.1,30.45,WSW,247,0.0,8.0,77,0.00,,,-99.99,Weather View 32 v60,2013-02-02 10:05:00,
2013-02-02 05:10:00,14.0,7.8,30.46,SW,225,0.0,8.0,76,0.00,,,-99.99,Weather View 32 v60,2013-02-02 10:10:00,
2013-02-02 05:15:00,14.0,8.7,30.46,WSW,247,0.0,8.0,79,0.00,,,-99.99,Weather View 32 v60,2013-02-02 10:15:00,
2013-02-02 05:20:00,14.0,7.8,30.45,SW,225,0.0,8.0,76,0.00,,,-99.99,Weather View 32 v60,2013-02-02 10:20:00,
2013-02-02 05:25:00,14.0,8.7,30.45,SW,225,0.0,8.0,79,0.00,,,-99.99,Weather View 32 v60,2013-02-02 10:25:00,
2013-02-02 05:30:00,14.0,9.0,30.45,WSW,247,1.0,7.0,80,0.00,,,-99.99,Weather View 32 v60,2013-02-02 10:30:00,
2013-02-02 05:45:00,14.0,7.8,30.45,WSW,247,3.0,7.0,76,0.00,,,-99.99,Weather View 32 v60,2013-02-02 10:45:00,
2013-02-02 06:21:00,14.0,7.8,30.45,SW,225,0.0,8.0,76,0.00,,,-99.99,Weather View 32 v60,2013-02-02 11:21:00,
2013-02-02 06:35:00,14.0,9.0,30.46,WSW,247,0.0,8.0,80,0.00,,,-99.99,Weather View 32 v60,2013-02-02 11:35:00,
2013-02-02 06:40:00,14.0,9.5,30.46,SW,225,0.0,8.0,82,0.00,,,-99.99,Weather View 32 v60,2013-02-02 11:40:00,
2013-02-02 06:45:00,14.0,8.4,30.46,WSW,247,0.0,8.0,78,0.00,,,-99.99,Weather View 32 v60,2013-02-02 11:45:00,
2013-02-02 06:55:00,14.0,9.0,30.47,SW,225,0.0,7.0,80,0.00,,,-99.99,Weather View 32 v60,2013-02-02 11:55:00,
2013-02-02 07:00:00,13.0,8.3,30.47,SW,225,0.0,7.0,81,0.00,,,-99.99,Weather View 32 v60,2013-02-02 12:00:00,
2013-02-02 07:10:00,13.0,8.5,30.47,SW,225,0.0,7.0,82,0.00,,,-99.99,Weather View 32 v60,2013-02-02 12:10:00,
2013-02-02 07:15:00,14.0,10.1,30.47,SW,225,0.0,7.0,84,0.00,,,-99.99,Weather View 32 v60,2013-02-02 12:15:00,
2013-02-02 07:22:00,14.0,9.5,30.47,SW,225,0.0,7.0,82,0.00,,,-99.99,Weather View 32 v60,2013-02-02 12:22:00,
2013-02-02 07:30:00,14.0,9.8,30.47,SW,225,0.0,7.0,83,0.00,,,-99.99,Weather View 32 v60,2013-02-02 12:30:00,
2013-02-02 07:40:00,15.0,10.8,30.47,SW,225,0.0,5.0,83,0.00,,,-99.99,Weather View 32 v60,2013-02-02 12:40:00,
2013-02-02 07:45:00,15.0,11.3,30.47,SW,225,0.0,4.0,85,0.00,,,-99.99,Weather View 32 v60,2013-02-02 12:45:00,
2013-02-02 07:55:00,16.0,10.4,30.47,SW,225,0.0,4.0,78,0.00,,,-99.99,Weather View 32 v60,2013-02-02 12:55:00,
2013-02-02 08:00:00,16.0,9.5,30.47,WSW,247,0.0,1.0,75,0.00,,,-99.99,Weather View 32 v60,2013-02-02 13:00:00,
2013-02-02 08:10:00,16.0,9.5,30.47,WSW,247,1.0,4.0,75,0.00,,,-99.99,Weather View 32 v60,2013-02-02 13:10:00,
2013-02-02 08:15:00,16.0,10.1,30.47,SW,225,0.0,4.0,77,0.00,,,-99.99,Weather View 32 v60,2013-02-02 13:15:00,
2013-02-02 08:23:00,16.0,9.2,30.47,WSW,247,3.0,4.0,74,0.00,,,-99.99,Weather View 32 v60,2013-02-02 13:23:00,
2013-02-02 08:30:00,16.0,8.3,30.46,WSW,247,0.0,5.0,71,0.00,,,-99.99,Weather View 32 v60,2013-02-02 13:30:00,
2013-02-02 08:40:00,17.0,8.3,30.46,WSW,247,4.0,5.0,68,0.00,,,-99.99,Weather View 32 v60,2013-02-02 13:40:00,
2013-02-02 08:45:00,17.0,7.6,30.46,WNW,292,3.0,6.0,66,0.00,,,-99.99,Weather View 32 v60,2013-02-02 13:45:00,
2013-02-02 08:55:00,17.0,7.3,30.46,West,270,1.0,6.0,65,0.00,,,-99.99,Weather View 32 v60,2013-02-02 13:55:00,
2013-02-02 09:00:00,19.0,9.2,30.45,West,270,0.0,6.0,65,0.00,,,-99.99,Weather View 32 v60,2013-02-02 14:00:00,
2013-02-02 09:09:00,20.0,9.1,30.44,SW,225,4.0,8.0,62,0.00,,,-99.99,Weather View 32 v60,2013-02-02 14:09:00,
2013-02-02 09:15:00,20.0,7.6,30.44,West,270,1.0,8.0,58,0.00,,,-99.99,Weather View 32 v60,2013-02-02 14:15:00,
2013-02-02 09:23:00,21.0,9.3,30.43,SW,225,0.0,8.0,60,0.00,,,-99.99,Weather View 32 v60,2013-02-02 14:23:00,
2013-02-02 09:30:00,21.0,7.4,30.42,WNW,292,2.0,8.0,55,0.00,,,-99.99,Weather View 32 v60,2013-02-02 14:30:00,
2013-02-02 09:40:00,22.0,9.1,30.42,West,270,0.0,8.0,57,0.00,,,-99.99,Weather View 32 v60,2013-02-02 14:40:00,
2013-02-02 09:45:00,23.0,10.0,30.42,West,270,1.0,8.0,57,0.00,,,-99.99,Weather View 32 v60,2013-02-02 14:45:00,
2013-02-02 09:55:00,24.0,8.5,30.41,SW,225,5.0,8.0,51,0.00,,,-99.99,Weather View 32 v60,2013-02-02 14:55:00,
2013-02-02 10:00:00,24.0,8.9,30.40,SW,225,7.0,8.0,52,0.00,,,-99.99,Weather View 32 v60,2013-02-02 15:00:00,
2013-02-02 10:05:00,23.0,7.1,30.40,WSW,247,2.0,8.0,50,0.00,,,-99.99,Weather View 32 v60,2013-02-02 15:05:00,
2013-02-02 10:15:00,23.0,7.1,30.40,WSW,247,3.0,7.0,50,0.00,,,-99.99,Weather View 32 v60,2013-02-02 15:15:00,
2013-02-02 10:20:00,24.0,9.3,30.39,West,270,0.0,7.0,53,0.00,,,-99.99,Weather View 32 v60,2013-02-02 15:20:00,
2013-02-02 10:25:00,25.0,8.5,30.39,WSW,247,0.0,7.0,49,0.00,,,-99.99,Weather View 32 v60,2013-02-02 15:25:00,
2013-02-02 10:30:00,24.0,7.1,30.39,WSW,247,3.0,8.0,48,0.00,,,-99.99,Weather View 32 v60,2013-02-02 15:30:00,
2013-02-02 10:40:00,24.0,8.9,30.40,WSW,247,3.0,8.0,52,0.00,,,-99.99,Weather View 32 v60,2013-02-02 15:40:00,
2013-02-02 10:45:00,24.0,8.9,30.40,SW,225,0.0,8.0,52,0.00,,,-99.99,Weather View 32 v60,2013-02-02 15:45:00,
2013-02-02 10:55:00,24.0,7.1,30.39,SW,225,4.0,8.0,48,0.00,,,-99.99,Weather View 32 v60,2013-02-02 15:55:00,
2013-02-02 11:05:00,24.0,8.0,30.39,SW,225,3.0,8.0,50,0.00,,,-99.99,Weather View 32 v60,2013-02-02 16:05:00,
2013-02-02 11:15:00,23.0,8.0,30.39,WSW,247,4.0,8.0,52,0.00,,,-99.99,Weather View 32 v60,2013-02-02 16:15:00,
2013-02-02 11:20:00,23.0,7.6,30.39,SW,225,3.0,8.0,51,0.00,,,-99.99,Weather View 32 v60,2013-02-02 16:20:00,
2013-02-02 11:25:00,23.0,7.1,30.39,WSW,247,2.0,8.0,50,0.00,,,-99.99,Weather View 32 v60,2013-02-02 16:25:00,
2013-02-02 11:30:00,24.0,8.5,30.38,WSW,247,5.0,8.0,51,0.00,,,-99.99,Weather View 32 v60,2013-02-02 16:30:00,
2013-02-02 11:35:00,24.0,7.6,30.38,SW,225,4.0,9.0,49,0.00,,,-99.99,Weather View 32 v60,2013-02-02 16:35:00,
2013-02-02 11:45:00,25.0,8.5,30.37,SW,225,1.0,10.0,49,0.00,,,-99.99,Weather View 32 v60,2013-02-02 16:45:00,
2013-02-02 11:55:00,26.0,9.0,30.36,SW,225,4.0,10.0,48,0.00,,,-99.99,Weather View 32 v60,2013-02-02 16:55:00,
2013-02-02 12:00:00,26.0,9.9,30.36,West,270,3.0,10.0,50,0.00,,,-99.99,Weather View 32 v60,2013-02-02 17:00:00,
2013-02-02 12:10:00,27.0,9.4,30.35,WSW,247,1.0,10.0,47,0.00,,,-99.99,Weather View 32 v60,2013-02-02 17:10:00,
2013-02-02 12:20:00,27.0,9.9,30.35,WSW,247,5.0,10.0,48,0.00,,,-99.99,Weather View 32 v60,2013-02-02 17:20:00,
2013-02-02 12:30:00,26.0,7.6,30.35,SW,225,3.0,10.0,45,0.00,,,-99.99,Weather View 32 v60,2013-02-02 17:30:00,
2013-02-02 12:39:00,25.0,8.1,30.34,SW,225,1.0,10.0,48,0.00,,,-99.99,Weather View 32 v60,2013-02-02 17:39:00,
2013-02-02 12:55:00,26.0,8.0,30.33,ENE,67,0.0,10.0,46,0.00,,,-99.99,Weather View 32 v60,2013-02-02 17:55:00,
2013-02-02 13:34:00,27.0,7.5,30.31,WSW,247,1.0,10.0,43,0.01,,,-99.99,Weather View 32 v60,2013-02-02 18:34:00,
2013-02-02 14:15:00,24.0,8.5,30.30,WSW,247,4.0,5.0,51,0.00,,,-99.99,Weather View 32 v60,2013-02-02 19:15:00,
2013-02-02 14:40:00,24.0,9.8,30.30,WSW,247,0.0,4.0,54,0.00,,,-99.99,Weather View 32 v60,2013-02-02 19:40:00,
2013-02-02 14:45:00,24.0,10.2,30.29,West,270,0.0,4.0,55,0.00,,,-99.99,Weather View 32 v60,2013-02-02 19:45:00,
2013-02-02 14:55:00,24.0,11.4,30.30,WSW,247,3.0,7.0,58,0.00,,,-99.99,Weather View 32 v60,2013-02-02 19:55:00,
2013-02-02 15:05:00,23.0,11.2,30.29,West,270,5.0,7.0,60,0.00,,,-99.99,Weather View 32 v60,2013-02-02 20:05:00,
2013-02-02 15:10:00,23.0,12.3,30.29,West,270,0.0,7.0,63,0.00,,,-99.99,Weather View 32 v60,2013-02-02 20:10:00,
2013-02-02 15:15:00,23.0,11.6,30.29,West,270,3.0,7.0,61,0.00,,,-99.99,Weather View 32 v60,2013-02-02 20:15:00,
2013-02-02 15:30:00,23.0,11.6,30.29,West,270,3.0,7.0,61,0.00,,,-99.99,Weather View 32 v60,2013-02-02 20:30:00,
2013-02-02 15:50:00,24.0,12.5,30.28,SW,225,4.0,7.0,61,0.00,,,-99.99,Weather View 32 v60,2013-02-02 20:50:00,
2013-02-02 15:55:00,23.0,12.6,30.28,West,270,0.0,7.0,64,0.00,,,-99.99,Weather View 32 v60,2013-02-02 20:55:00,
2013-02-02 16:05:00,23.0,13.3,30.27,WSW,247,0.0,7.0,66,0.00,,,-99.99,Weather View 32 v60,2013-02-02 21:05:00,
2013-02-02 16:15:00,24.0,14.3,30.27,West,270,0.0,7.0,66,0.00,,,-99.99,Weather View 32 v60,2013-02-02 21:15:00,
2013-02-02 16:20:00,24.0,13.2,30.27,West,270,0.0,7.0,63,0.00,,,-99.99,Weather View 32 v60,2013-02-02 21:20:00,
2013-02-02 16:25:00,23.0,13.0,30.27,WSW,247,0.0,7.0,65,0.00,,,-99.99,Weather View 32 v60,2013-02-02 21:25:00,
2013-02-02 16:40:00,24.0,13.6,30.27,WSW,247,2.0,7.0,64,0.00,,,-99.99,Weather View 32 v60,2013-02-02 21:40:00,
2013-02-02 16:45:00,23.0,12.6,30.27,WSW,247,3.0,7.0,64,0.00,,,-99.99,Weather View 32 v60,2013-02-02 21:45:00,
2013-02-02 16:50:00,23.0,13.7,30.27,WSW,247,1.0,8.0,67,0.00,,,-99.99,Weather View 32 v60,2013-02-02 21:50:00,
2013-02-02 17:00:00,23.0,13.3,30.26,WSW,247,1.0,8.0,66,0.00,,,-99.99,Weather View 32 v60,2013-02-02 22:00:00,
2013-02-02 17:09:00,24.0,14.3,30.26,West,270,1.0,8.0,66,0.00,,,-99.99,Weather View 32 v60,2013-02-02 22:09:00,
2013-02-02 17:15:00,23.0,13.7,30.26,WSW,247,0.0,8.0,67,0.00,,,-99.99,Weather View 32 v60,2013-02-02 22:15:00,
2013-02-02 17:25:00,23.0,14.7,30.26,WSW,247,0.0,8.0,70,0.00,,,-99.99,Weather View 32 v60,2013-02-02 22:25:00,
2013-02-02 17:30:00,23.0,14.3,30.25,WSW,247,2.0,8.0,69,0.00,,,-99.99,Weather View 32 v60,2013-02-02 22:30:00,
2013-02-02 17:40:00,23.0,15.0,30.25,WSW,247,0.0,8.0,71,0.00,,,-99.99,Weather View 32 v60,2013-02-02 22:40:00,
2013-02-02 17:45:00,23.0,15.0,30.25,SW,225,0.0,8.0,71,0.00,,,-99.99,Weather View 32 v60,2013-02-02 22:45:00,
2013-02-02 17:55:00,23.0,14.3,30.25,SW,225,0.0,6.0,69,0.00,,,-99.99,Weather View 32 v60,2013-02-02 22:55:00,
2013-02-02 18:15:00,24.0,16.0,30.24,WSW,247,0.0,6.0,71,0.00,,,-99.99,Weather View 32 v60,2013-02-02 23:15:00,
2013-02-02 18:25:00,24.0,16.6,30.24,SW,225,0.0,6.0,73,0.00,,,-99.99,Weather View 32 v60,2013-02-02 23:25:00,
2013-02-02 18:45:00,23.0,16.3,30.24,WSW,247,0.0,6.0,75,0.00,,,-99.99,Weather View 32 v60,2013-02-02 23:45:00,
2013-02-02 18:55:00,23.0,17.8,30.24,WSW,247,2.0,6.0,80,0.00,,,-99.99,Weather View 32 v60,2013-02-02 23:55:00,
2013-02-02 19:00:00,22.0,17.4,30.25,WSW,247,0.0,6.0,82,0.00,,,-99.99,Weather View 32 v60,2013-02-03 00:00:00,
2013-02-02 19:09:00,23.0,18.3,30.25,SW,225,0.0,6.0,82,0.00,,,-99.99,Weather View 32 v60,2013-02-03 00:09:00,
2013-02-02 19:15:00,23.0,18.3,30.25,WSW,247,0.0,6.0,82,0.00,,,-99.99,Weather View 32 v60,2013-02-03 00:15:00,
2013-02-02 19:20:00,23.0,18.3,30.25,SW,225,0.0,6.0,82,0.00,,,-99.99,Weather View 32 v60,2013-02-03 00:20:00,
2013-02-02 19:25:00,23.0,18.3,30.25,SW,225,0.0,6.0,82,0.00,,,-99.99,Weather View 32 v60,2013-02-03 00:25:00,
2013-02-02 19:35:00,23.0,18.0,30.25,SW,225,0.0,6.0,81,0.00,,,-99.99,Weather View 32 v60,2013-02-03 00:35:00,
2013-02-02 19:40:00,22.0,18.2,30.25,SW,225,0.0,6.0,85,0.00,,,-99.99,Weather View 32 v60,2013-02-03 00:40:00,
2013-02-02 19:45:00,23.0,18.9,30.24,East,90,0.0,4.0,84,0.00,,,-99.99,Weather View 32 v60,2013-02-03 00:45:00,
2013-02-02 19:55:00,23.0,18.9,30.25,SW,225,0.0,4.0,84,0.00,,,-99.99,Weather View 32 v60,2013-02-03 00:55:00,
2013-02-02 20:00:00,23.0,19.7,30.25,SW,225,0.0,4.0,87,0.00,,,-99.99,Weather View 32 v60,2013-02-03 01:00:00,
2013-02-02 20:05:00,23.0,19.2,30.25,SW,225,0.0,4.0,85,0.00,,,-99.99,Weather View 32 v60,2013-02-03 01:05:00,
2013-02-02 20:15:00,23.0,19.7,30.25,SW,225,0.0,4.0,87,0.00,,,-99.99,Weather View 32 v60,2013-02-03 01:15:00,
2013-02-02 20:25:00,23.0,19.7,30.25,SW,225,0.0,3.0,87,0.00,,,-99.99,Weather View 32 v60,2013-02-03 01:25:00,
2013-02-02 20:34:00,22.0,19.3,30.24,SW,225,0.0,3.0,89,0.00,,,-99.99,Weather View 32 v60,2013-02-03 01:34:00,
2013-02-02 20:39:00,23.0,20.0,30.24,SW,225,0.0,1.0,88,0.00,,,-99.99,Weather View 32 v60,2013-02-03 01:39:00,
2013-02-02 20:50:00,23.0,20.2,30.24,SW,225,0.0,1.0,89,0.00,,,-99.99,Weather View 32 v60,2013-02-03 01:50:00,
2013-02-02 20:55:00,23.0,20.0,30.24,SW,225,0.0,1.0,88,0.00,,,-99.99,Weather View 32 v60,2013-02-03 01:55:00,
2013-02-02 21:00:00,23.0,19.7,30.24,SW,225,0.0,1.0,87,0.00,,,-99.99,Weather View 32 v60,2013-02-03 02:00:00,
2013-02-02 21:09:00,22.0,19.3,30.24,SW,225,0.0,0.0,89,0.00,,,-99.99,Weather View 32 v60,2013-02-03 02:09:00,
2013-02-02 21:15:00,22.0,19.5,30.24,SW,225,0.0,0.0,90,0.00,,,-99.99,Weather View 32 v60,2013-02-03 02:15:00,
2013-02-02 21:20:00,22.0,19.8,30.24,SW,225,0.0,0.0,91,0.00,,,-99.99,Weather View 32 v60,2013-02-03 02:20:00,
2013-02-02 21:25:00,21.0,19.3,30.24,SW,225,0.0,0.0,93,0.00,,,-99.99,Weather View 32 v60,2013-02-03 02:25:00,
2013-02-02 21:30:00,22.0,20.0,30.24,SW,225,0.0,0.0,92,0.00,,,-99.99,Weather View 32 v60,2013-02-03 02:30:00,
2013-02-02 21:39:00,22.0,20.0,30.24,SW,225,0.0,0.0,92,0.00,,,-99.99,Weather View 32 v60,2013-02-03 02:39:00,
2013-02-02 21:45:00,21.0,19.3,30.24,SW,225,0.0,1.0,93,0.00,,,-99.99,Weather View 32 v60,2013-02-03 02:45:00,
2013-02-02 21:55:00,21.0,19.8,30.24,SW,225,0.0,1.0,95,0.00,,,-99.99,Weather View 32 v60,2013-02-03 02:55:00,
2013-02-02 22:04:00,22.0,20.8,30.23,SW,225,0.0,1.0,95,0.00,,,-99.99,Weather View 32 v60,2013-02-03 03:04:00,
2013-02-02 22:09:00,21.0,19.8,30.23,SW,225,0.0,1.0,95,0.00,,,-99.99,Weather View 32 v60,2013-02-03 03:09:00,
2013-02-02 22:15:00,21.0,19.8,30.23,SW,225,0.0,1.0,95,0.00,,,-99.99,Weather View 32 v60,2013-02-03 03:15:00,
2013-02-02 22:25:00,21.0,20.3,30.22,SW,225,0.0,1.0,97,0.00,,,-99.99,Weather View 32 v60,2013-02-03 03:25:00,
2013-02-02 22:30:00,21.0,20.5,30.22,SW,225,0.0,1.0,98,0.00,,,-99.99,Weather View 32 v60,2013-02-03 03:30:00,
2013-02-02 22:35:00,21.0,20.5,30.22,SW,225,0.0,1.0,98,0.00,,,-99.99,Weather View 32 v60,2013-02-03 03:35:00,
2013-02-02 22:40:00,21.0,20.5,30.22,SW,225,0.0,1.0,98,0.00,,,-99.99,Weather View 32 v60,2013-02-03 03:40:00,
2013-02-02 22:50:00,21.0,20.8,30.21,ENE,67,0.0,0.0,99,0.00,,,-99.99,Weather View 32 v60,2013-02-03 03:50:00,
2013-02-02 22:55:00,21.0,21.0,30.21,ENE,67,0.0,0.0,100,0.00,,,-99.99,Weather View 32 v60,2013-02-03 03:55:00,
2013-02-02 23:00:00,21.0,21.0,30.19,NE,45,0.0,0.0,100,0.00,,,-99.99,Weather View 32 v60,2013-02-03 04:00:00,
2013-02-02 23:05:00,21.0,21.0,30.19,NE,45,0.0,0.0,100,0.00,,,-99.99,Weather View 32 v60,2013-02-03 04:05:00,
2013-02-02 23:10:00,21.0,21.0,30.20,East,90,0.0,0.0,100,0.00,,,-99.99,Weather View 32 v60,2013-02-03 04:10:00,
2013-02-02 23:15:00,20.0,20.0,30.20,East,90,0.0,0.0,100,0.00,,,-99.99,Weather View 32 v60,2013-02-03 04:15:00,
2013-02-02 23:20:00,21.0,21.0,30.19,NE,45,0.0,0.0,100,0.00,,,-99.99,Weather View 32 v60,2013-02-03 04:20:00,
2013-02-02 23:25:00,20.0,20.0,30.20,East,90,0.0,0.0,100,0.00,,,-99.99,Weather View 32 v60,2013-02-03 04:25:00,
2013-02-02 23:30:00,21.0,21.0,30.20,East,90,0.0,0.0,100,0.00,,,-99.99,Weather View 32 v60,2013-02-03 04:30:00,
2013-02-02 23:35:00,20.0,20.0,30.20,East,90,0.0,0.0,100,0.00,,,-99.99,Weather View 32 v60,2013-02-03 04:35:00,
2013-02-02 23:40:00,21.0,21.0,30.20,East,90,0.0,0.0,100,0.00,,,-99.99,Weather View 32 v60,2013-02-03 04:40:00,
2013-02-02 23:45:00,21.0,21.0,30.18,NE,45,0.0,0.0,100,0.00,,,-99.99,Weather View 32 v60,2013-02-03 04:45:00,
2013-02-02 23:49:00,21.0,21.0,30.20,East,90,0.0,0.0,100,0.00,,,-99.99,Weather View 32 v60,2013-02-03 04:49:00,
2013-02-02 23:50:00,21.0,21.0,30.18,NE,45,0.0,0.0,100,0.00,,,-99.99,Weather View 32 v60,2013-02-03 04:50:00,
2013-02-02 23:55:00,21.0,21.0,30.19,East,90,0.0,0.0,100,0.00,,,-99.99,Weather View 32 v60,2013-02-03 04:55:00,